createdAt,value
2023-01-29T00:01:12.306Z,100.00
2023-01-29T00:03:40.762Z,100.00
2023-01-29T00:06:13.110Z,100.00
2023-01-29T00:08:41.704Z,100.00
2023-01-29T00:11:11.175Z,100.00
2023-01-29T00:13:39.638Z,100.00
2023-01-29T00:16:08.389Z,100.00
2023-01-29T00:18:40.258Z,100.00
2023-01-29T00:21:13.173Z,100.00
2023-01-29T00:23:41.573Z,100.00
2023-01-29T00:26:10.262Z,100.00
2023-01-29T00:28:40.529Z,100.00
2023-01-29T00:31:10.611Z,100.00
2023-01-29T00:33:39.137Z,100.00
2023-01-29T00:36:09.213Z,100.00
2023-01-29T00:38:39.787Z,100.00
2023-01-29T00:41:26.585Z,100.00
2023-01-29T00:44:12.512Z,100.00
2023-01-29T00:46:41.288Z,100.00
2023-01-29T00:49:12.991Z,100.00
2023-01-29T00:51:41.250Z,100.00
2023-01-29T00:54:11.155Z,100.00
2023-01-29T00:56:39.600Z,100.00
2023-01-29T00:59:07.823Z,100.00
2023-01-29T01:01:53.338Z,100.00
2023-01-29T01:04:22.002Z,100.00
2023-01-29T01:06:50.233Z,100.00
2023-01-29T01:09:40.329Z,100.00
2023-01-29T01:12:08.713Z,100.00
2023-01-29T01:14:37.389Z,100.00
2023-01-29T01:17:06.641Z,100.00
2023-01-29T01:19:35.544Z,100.00
2023-01-29T01:22:05.123Z,100.00
2023-01-29T01:24:35.447Z,100.00
2023-01-29T01:27:03.689Z,100.00
2023-01-29T01:29:31.968Z,100.00
2023-01-29T01:32:01.204Z,100.00
2023-01-29T01:34:30.628Z,100.00
2023-01-29T01:36:58.909Z,100.00
2023-01-29T01:39:27.188Z,100.00
2023-01-29T01:41:57.269Z,100.00
2023-01-29T01:44:55.296Z,100.00
2023-01-29T01:47:28.188Z,100.00
2023-01-29T01:49:58.701Z,100.00
2023-01-29T01:52:27.227Z,100.00
2023-01-29T01:54:55.455Z,100.00
2023-01-29T01:57:28.027Z,100.00
2023-01-29T02:00:01.474Z,100.00
2023-01-29T02:02:46.942Z,100.00
2023-01-29T02:05:33.726Z,100.00
2023-01-29T02:08:19.565Z,100.00
2023-01-29T02:10:50.290Z,100.00
2023-01-29T02:13:21.955Z,100.00
2023-01-29T02:15:50.201Z,100.00
2023-01-29T02:18:21.741Z,100.00
2023-01-29T02:21:12.945Z,100.00
2023-01-29T02:24:12.753Z,100.00
2023-01-29T02:26:51.404Z,100.00
2023-01-29T02:29:27.348Z,100.00
2023-01-29T02:32:17.630Z,100.00
2023-01-29T02:35:12.753Z,100.00
2023-01-29T02:37:48.871Z,100.00
2023-01-29T02:40:25.709Z,100.00
2023-01-29T02:43:02.831Z,100.00
2023-01-29T02:45:43.858Z,100.00
2023-01-29T02:48:17.553Z,100.00
2023-01-29T02:50:51.007Z,100.00
2023-01-29T02:53:27.268Z,100.00
2023-01-29T02:56:00.221Z,100.00
2023-01-29T02:58:35.047Z,100.00
2023-01-29T03:01:09.223Z,100.00
2023-01-29T03:03:42.736Z,100.00
2023-01-29T03:06:20.560Z,100.00
2023-01-29T03:08:55.640Z,100.00
2023-01-29T03:11:23.934Z,100.00
2023-01-29T03:13:58.993Z,100.00
2023-01-29T03:16:35.625Z,100.00
2023-01-29T03:19:10.038Z,100.00
2023-01-29T03:21:59.305Z,100.00
2023-01-29T03:24:53.117Z,100.00
2023-01-29T03:27:42.582Z,100.00
2023-01-29T03:30:31.526Z,100.00
2023-01-29T03:33:05.179Z,100.00
2023-01-29T03:35:37.764Z,100.00
2023-01-29T03:38:10.099Z,100.00
2023-01-29T03:40:47.257Z,100.00
2023-01-29T03:43:27.999Z,100.00
2023-01-29T03:46:07.312Z,100.00
2023-01-29T03:48:40.181Z,100.00
2023-01-29T03:51:18.779Z,100.00
2023-01-29T03:53:51.740Z,100.00
2023-01-29T03:56:32.563Z,100.00
2023-01-29T03:59:04.104Z,100.00
2023-01-29T04:01:42.045Z,100.00
2023-01-29T04:04:19.706Z,100.00
2023-01-29T04:06:53.285Z,100.00
2023-01-29T04:09:29.018Z,100.00
2023-01-29T04:12:04.438Z,100.00
2023-01-29T04:14:34.120Z,100.00
2023-01-29T04:17:08.179Z,100.00
2023-01-29T04:19:38.184Z,100.00
2023-01-29T04:22:13.253Z,100.00
2023-01-29T04:24:42.892Z,100.00
2023-01-29T04:27:27.701Z,100.00
2023-01-29T04:30:08.703Z,100.00
2023-01-29T04:32:51.048Z,100.00
2023-01-29T04:35:30.131Z,100.00
2023-01-29T04:38:09.627Z,100.00
2023-01-29T04:40:52.011Z,100.00
2023-01-29T04:43:28.644Z,100.00
2023-01-29T04:46:12.076Z,100.00
2023-01-29T04:48:59.880Z,100.00
2023-01-29T04:51:44.535Z,100.00
2023-01-29T04:54:20.751Z,100.00
2023-01-29T04:56:56.383Z,100.00
2023-01-29T04:59:29.907Z,100.00
2023-01-29T05:02:00.716Z,100.00
2023-01-29T05:04:32.489Z,100.00
2023-01-29T05:07:06.070Z,100.00
2023-01-29T05:09:38.002Z,100.00
2023-01-29T05:12:09.560Z,100.00
2023-01-29T05:14:41.182Z,100.00
2023-01-29T05:17:15.058Z,100.00
2023-01-29T05:19:43.673Z,100.00
2023-01-29T05:22:17.996Z,100.00
2023-01-29T05:24:46.690Z,100.00
2023-01-29T05:27:37.092Z,100.00
2023-01-29T05:30:09.205Z,100.00
2023-01-29T05:32:39.986Z,100.00
2023-01-29T05:35:09.088Z,100.00
2023-01-29T05:37:39.020Z,100.00
2023-01-29T05:40:08.920Z,100.00
2023-01-29T05:42:37.394Z,100.00
2023-01-29T05:45:06.756Z,100.00
2023-01-29T05:47:36.070Z,100.00
2023-01-29T05:50:04.356Z,100.00
2023-01-29T05:52:32.716Z,100.00
2023-01-29T05:55:03.072Z,100.00
2023-01-29T05:57:31.229Z,100.00
2023-01-29T05:59:59.947Z,100.00
2023-01-29T06:02:31.464Z,100.00
2023-01-29T06:04:59.703Z,100.00
2023-01-29T06:07:27.985Z,100.00
2023-01-29T06:09:56.273Z,100.00
2023-01-29T06:12:26.080Z,100.00
2023-01-29T06:14:54.259Z,100.00
2023-01-29T06:17:22.495Z,100.00
2023-01-29T06:19:50.778Z,100.00
2023-01-29T06:22:19.128Z,100.00
2023-01-29T06:24:47.386Z,100.00
2023-01-29T06:27:16.386Z,100.00
2023-01-29T06:29:46.198Z,100.00
2023-01-29T06:32:17.768Z,100.00
2023-01-29T06:34:48.640Z,100.00
2023-01-29T06:37:18.743Z,100.00
2023-01-29T06:39:47.162Z,100.00
2023-01-29T06:42:15.855Z,100.00
2023-01-29T06:44:46.304Z,100.00
2023-01-29T06:47:14.923Z,100.00
2023-01-29T06:49:44.792Z,100.00
2023-01-29T06:52:13.120Z,100.00
2023-01-29T06:54:42.047Z,100.00
2023-01-29T06:57:10.377Z,100.00
2023-01-29T06:59:38.607Z,100.00
2023-01-29T07:02:08.538Z,100.00
2023-01-29T07:04:37.908Z,100.00
2023-01-29T07:07:12.933Z,100.00
2023-01-29T07:09:41.980Z,100.00
2023-01-29T07:12:10.671Z,100.00
2023-01-29T07:14:39.146Z,100.00
2023-01-29T07:17:09.230Z,100.00
2023-01-29T07:19:37.389Z,100.00
2023-01-29T07:22:06.494Z,100.00
2023-01-29T07:24:34.783Z,100.00
2023-01-29T07:27:04.896Z,100.00
2023-01-29T07:29:34.594Z,100.00
2023-01-29T07:32:02.855Z,100.00
2023-01-29T07:34:32.535Z,100.00
2023-01-29T07:37:00.764Z,100.00
2023-01-29T07:39:34.713Z,100.00
2023-01-29T07:42:03.360Z,100.00
2023-01-29T07:44:33.280Z,100.00
2023-01-29T07:47:01.497Z,100.00
2023-01-29T07:49:29.835Z,100.00
2023-01-29T07:51:59.593Z,100.00
2023-01-29T07:54:27.770Z,100.00
2023-01-29T07:56:56.045Z,100.00
2023-01-29T07:59:24.307Z,100.00
2023-01-29T08:01:53.602Z,100.00
2023-01-29T08:04:21.936Z,100.00
2023-01-29T08:06:50.073Z,100.00
2023-01-29T08:09:19.879Z,100.00
2023-01-29T08:11:50.689Z,100.00
2023-01-29T08:14:19.068Z,100.00
2023-01-29T08:16:47.305Z,100.00
2023-01-29T08:19:15.651Z,100.00
2023-01-29T08:21:44.765Z,100.00
2023-01-29T08:24:31.143Z,100.00
2023-01-29T08:27:10.145Z,100.00
2023-01-29T08:29:38.613Z,100.00
2023-01-29T08:32:07.317Z,100.00
2023-01-29T08:34:35.488Z,100.00
2023-01-29T08:37:20.657Z,100.00
2023-01-29T08:39:50.494Z,100.00
2023-01-29T08:42:19.262Z,100.00
2023-01-29T08:44:47.635Z,100.00
2023-01-29T08:47:16.380Z,100.00
2023-01-29T08:49:45.022Z,100.00
2023-01-29T08:52:22.462Z,100.00
2023-01-29T08:54:52.229Z,100.00
2023-01-29T08:57:20.484Z,100.00
2023-01-29T08:59:48.724Z,100.00
2023-01-29T09:02:17.041Z,100.00
2023-01-29T09:04:45.335Z,100.00
2023-01-29T09:07:14.076Z,100.00
2023-01-29T09:09:42.249Z,100.00
2023-01-29T09:12:12.008Z,100.00
2023-01-29T09:14:41.198Z,100.00
2023-01-29T09:17:09.398Z,100.00
2023-01-29T09:19:37.612Z,100.00
2023-01-29T09:22:06.400Z,100.00
2023-01-29T09:24:35.127Z,100.00
2023-01-29T09:27:04.085Z,100.00
2023-01-29T09:29:35.867Z,100.00
2023-01-29T09:32:05.598Z,100.00
2023-01-29T09:34:35.368Z,100.00
2023-01-29T09:37:03.636Z,100.00
2023-01-29T09:39:31.808Z,100.00
2023-01-29T09:42:08.947Z,100.00
2023-01-29T09:44:55.587Z,100.00
2023-01-29T09:47:27.312Z,100.00
2023-01-29T09:50:01.938Z,100.00
2023-01-29T09:52:36.468Z,100.00
2023-01-29T09:55:21.420Z,100.00
2023-01-29T09:57:53.117Z,100.00
2023-01-29T10:00:26.658Z,100.00
2023-01-29T10:06:02.326Z,100.00
2023-01-29T10:08:55.510Z,100.00
2023-01-29T10:11:36.662Z,100.00
2023-01-29T10:14:15.039Z,100.00
2023-01-29T10:16:57.364Z,100.00
2023-01-29T10:19:51.799Z,100.00
2023-01-29T10:22:47.936Z,100.00
2023-01-29T10:25:20.208Z,100.00
2023-01-29T10:27:51.597Z,100.00
2023-01-29T10:30:29.899Z,100.00
2023-01-29T10:33:04.517Z,100.00
2023-01-29T10:35:36.687Z,100.00
2023-01-29T10:38:22.676Z,100.00
2023-01-29T10:40:56.844Z,100.00
2023-01-29T10:43:36.174Z,100.00
2023-01-29T10:46:20.591Z,100.00
2023-01-29T10:49:00.895Z,100.00
2023-01-29T10:51:58.685Z,100.00
2023-01-29T10:54:46.707Z,100.00
2023-01-29T10:57:26.395Z,100.00
2023-01-29T11:00:07.500Z,100.00
2023-01-29T11:02:36.054Z,100.00
2023-01-29T11:05:09.427Z,100.00
2023-01-29T11:07:38.480Z,100.00
2023-01-29T11:10:16.019Z,100.00
2023-01-29T11:12:45.018Z,100.00
2023-01-29T11:15:20.645Z,100.00
2023-01-29T11:18:06.538Z,100.00
2023-01-29T11:20:36.331Z,100.00
2023-01-29T11:23:06.707Z,100.00
2023-01-29T11:25:36.676Z,100.00
2023-01-29T11:28:05.466Z,100.00
2023-01-29T11:30:36.897Z,100.00
2023-01-29T11:33:13.830Z,100.00
2023-01-29T11:35:43.702Z,100.00
2023-01-29T11:38:22.414Z,100.00
2023-01-29T11:40:51.768Z,100.00
2023-01-29T11:43:29.207Z,100.00
2023-01-29T11:46:01.473Z,100.00
2023-01-29T11:48:42.182Z,100.00
2023-01-29T11:51:14.292Z,100.00
2023-01-29T11:53:46.281Z,100.00
2023-01-29T11:56:22.072Z,100.00
2023-01-29T11:58:51.775Z,100.00
2023-01-29T12:01:32.052Z,100.00
2023-01-29T12:04:01.338Z,100.00
2023-01-29T12:06:37.029Z,100.00
2023-01-29T12:09:14.458Z,100.00
2023-01-29T12:11:44.544Z,100.00
2023-01-29T12:14:28.101Z,100.00
2023-01-29T12:17:00.785Z,100.00
2023-01-29T12:19:36.636Z,100.00
2023-01-29T12:22:12.723Z,100.00
2023-01-29T12:24:48.538Z,100.00
2023-01-29T12:27:23.890Z,100.00
2023-01-29T12:29:59.349Z,100.00
2023-01-29T12:32:37.159Z,100.00
2023-01-29T12:35:17.707Z,100.00
2023-01-29T12:37:56.014Z,100.00
2023-01-29T12:40:28.719Z,100.00
2023-01-29T12:43:06.040Z,100.00
2023-01-29T12:45:35.905Z,100.00
2023-01-29T12:48:10.645Z,100.00
2023-01-29T12:50:41.036Z,100.00
2023-01-29T12:53:20.641Z,100.00
2023-01-29T12:55:55.764Z,100.00
2023-01-29T12:58:31.913Z,100.00
2023-01-29T13:01:08.414Z,100.00
2023-01-29T13:03:48.022Z,100.00
2023-01-29T13:06:20.770Z,100.00
2023-01-29T13:08:55.306Z,99.97
2023-01-29T13:11:28.415Z,100.00
2023-01-29T13:14:02.639Z,99.18
2023-01-29T13:16:38.434Z,99.76
2023-01-29T13:19:14.703Z,100.00
2023-01-29T13:21:45.550Z,100.00
2023-01-29T13:24:19.814Z,99.99
2023-01-29T13:26:50.022Z,100.00
2023-01-29T13:29:26.308Z,100.00
2023-01-29T13:31:57.689Z,99.44
2023-01-29T13:34:35.002Z,99.45
2023-01-29T13:37:05.321Z,99.93
2023-01-29T13:39:44.267Z,99.63
2023-01-29T13:42:19.128Z,99.79
2023-01-29T13:44:51.662Z,99.45
2023-01-29T13:47:25.888Z,99.88
2023-01-29T13:50:01.747Z,100.00
2023-01-29T13:52:41.797Z,99.85
2023-01-29T13:55:26.411Z,99.37
2023-01-29T13:57:56.427Z,99.42
2023-01-29T14:01:01.677Z,98.99
2023-01-29T14:04:09.928Z,98.51
2023-01-29T14:06:45.130Z,98.17
2023-01-29T14:09:36.275Z,98.95
2023-01-29T14:12:26.563Z,99.43
2023-01-29T14:15:08.849Z,98.44
2023-01-29T14:17:37.710Z,98.64
2023-01-29T14:20:20.345Z,97.71
2023-01-29T14:23:00.562Z,97.51
2023-01-29T14:25:33.386Z,98.50
2023-01-29T14:28:04.878Z,97.61
2023-01-29T14:30:35.849Z,98.42
2023-01-29T14:33:06.901Z,98.35
2023-01-29T14:35:35.966Z,98.87
2023-01-29T14:38:07.717Z,98.47
2023-01-29T14:40:48.145Z,97.92
2023-01-29T14:43:22.103Z,97.52
2023-01-29T14:45:52.625Z,97.81
2023-01-29T14:48:47.888Z,97.61
2023-01-29T14:51:26.299Z,97.49
2023-01-29T14:54:00.724Z,97.90
2023-01-29T14:56:35.336Z,98.19
2023-01-29T14:59:16.019Z,98.62
2023-01-29T15:01:51.789Z,98.08
2023-01-29T15:04:27.336Z,98.60
2023-01-29T15:07:02.404Z,97.83
2023-01-29T15:09:40.813Z,98.27
2023-01-29T15:12:20.010Z,98.09
2023-01-29T15:14:58.017Z,99.15
2023-01-29T15:17:31.750Z,98.98
2023-01-29T15:20:00.981Z,99.36
2023-01-29T15:22:32.977Z,99.84
2023-01-29T15:25:07.486Z,100.00
2023-01-29T15:27:36.205Z,100.00
2023-01-29T15:30:08.582Z,100.00
2023-01-29T15:32:38.848Z,100.00
2023-01-29T15:35:12.247Z,100.00
2023-01-29T15:37:41.403Z,100.00
2023-01-29T15:40:18.863Z,100.00
2023-01-29T15:42:50.027Z,100.00
2023-01-29T15:45:31.428Z,100.00
2023-01-29T15:48:07.372Z,100.00
2023-01-29T15:50:38.702Z,100.00
2023-01-29T15:53:11.498Z,100.00
2023-01-29T15:55:42.231Z,100.00
2023-01-29T15:58:17.442Z,100.00
2023-01-29T16:00:54.126Z,100.00
2023-01-29T16:03:28.253Z,100.00
2023-01-29T16:05:57.182Z,100.00
2023-01-29T16:08:29.649Z,100.00
2023-01-29T16:11:14.167Z,100.00
2023-01-29T16:13:44.411Z,100.00
2023-01-29T16:16:23.279Z,100.00
2023-01-29T16:19:00.038Z,100.00
2023-01-29T16:21:33.478Z,100.00
2023-01-29T16:24:09.470Z,100.00
2023-01-29T16:26:43.337Z,100.00
2023-01-29T16:29:14.760Z,100.00
2023-01-29T16:31:46.090Z,100.00
2023-01-29T16:34:20.693Z,100.00
2023-01-29T16:36:50.147Z,100.00
2023-01-29T16:39:21.388Z,100.00
2023-01-29T16:42:21.013Z,100.00
2023-01-29T16:44:54.045Z,100.00
2023-01-29T16:47:30.281Z,100.00
2023-01-29T16:50:00.971Z,100.00
2023-01-29T16:52:31.632Z,100.00
2023-01-29T16:55:17.200Z,100.00
2023-01-29T16:57:49.788Z,100.00
2023-01-29T17:00:23.918Z,100.00
2023-01-29T17:02:57.568Z,100.00
2023-01-29T17:05:29.304Z,100.00
2023-01-29T17:07:59.785Z,100.00
2023-01-29T17:10:30.532Z,100.00
2023-01-29T17:13:12.993Z,100.00
2023-01-29T17:15:47.368Z,100.00
2023-01-29T17:18:22.929Z,100.00
2023-01-29T17:20:53.114Z,100.00
2023-01-29T17:23:21.951Z,100.00
2023-01-29T17:25:55.113Z,100.00
2023-01-29T17:28:23.700Z,100.00
2023-01-29T17:31:05.278Z,100.00
2023-01-29T17:33:37.413Z,100.00
2023-01-29T17:36:06.208Z,100.00
2023-01-29T17:38:34.992Z,100.00
2023-01-29T17:41:08.377Z,100.00
2023-01-29T17:43:37.533Z,100.00
2023-01-29T17:46:10.566Z,100.00
2023-01-29T17:48:40.798Z,100.00
2023-01-29T17:51:16.071Z,100.00
2023-01-29T17:53:47.197Z,100.00
2023-01-29T17:56:18.033Z,100.00
2023-01-29T17:58:46.461Z,100.00
2023-01-29T18:01:14.780Z,100.00
2023-01-29T18:03:44.733Z,100.00
2023-01-29T18:06:29.752Z,100.00
2023-01-29T18:08:58.671Z,100.00
2023-01-29T18:11:28.215Z,100.00
2023-01-29T18:13:56.713Z,100.00
2023-01-29T18:16:26.396Z,100.00
2023-01-29T18:18:56.474Z,100.00
2023-01-29T18:21:24.853Z,100.00
2023-01-29T18:23:54.039Z,100.00
2023-01-29T18:26:28.096Z,100.00
2023-01-29T18:28:57.509Z,100.00
2023-01-29T18:31:25.932Z,100.00
2023-01-29T18:33:56.189Z,100.00
2023-01-29T18:36:27.006Z,100.00
2023-01-29T18:38:55.345Z,100.00
2023-01-29T18:41:24.014Z,100.00
2023-01-29T18:43:53.188Z,100.00
2023-01-29T18:46:22.673Z,100.00
2023-01-29T18:48:51.159Z,100.00
2023-01-29T18:51:21.356Z,100.00
2023-01-29T18:53:52.555Z,100.00
2023-01-29T18:56:21.850Z,100.00
2023-01-29T18:58:55.408Z,100.00
2023-01-29T19:01:25.240Z,100.00
2023-01-29T19:03:54.047Z,100.00
2023-01-29T19:06:37.917Z,100.00
2023-01-29T19:09:06.362Z,100.00
2023-01-29T19:11:35.190Z,100.00
2023-01-29T19:14:03.467Z,100.00
2023-01-29T19:16:31.956Z,100.00
2023-01-29T19:19:01.486Z,100.00
2023-01-29T19:21:35.952Z,100.00
2023-01-29T19:24:04.486Z,100.00
2023-01-29T19:27:08.531Z,100.00
2023-01-29T19:29:36.881Z,100.00
2023-01-29T19:32:06.294Z,100.00
2023-01-29T19:34:34.605Z,100.00
2023-01-29T19:37:05.088Z,100.00
2023-01-29T19:39:34.204Z,100.00
2023-01-29T19:42:02.665Z,100.00
2023-01-29T19:44:30.958Z,100.00
2023-01-29T19:46:59.993Z,100.00
2023-01-29T19:49:36.662Z,100.00
2023-01-29T19:52:08.118Z,100.00
2023-01-29T19:54:36.380Z,100.00
2023-01-29T19:57:07.185Z,100.00
2023-01-29T19:59:35.597Z,100.00
2023-01-29T20:02:04.061Z,100.00
2023-01-29T20:04:35.278Z,100.00
2023-01-29T20:07:03.608Z,100.00
2023-01-29T20:09:36.439Z,100.00
2023-01-29T20:12:04.796Z,100.00
2023-01-29T20:14:33.131Z,100.00
2023-01-29T20:17:02.400Z,100.00
2023-01-29T20:19:30.592Z,100.00
2023-01-29T20:21:58.963Z,100.00
2023-01-29T20:24:30.234Z,100.00
2023-01-29T20:27:00.213Z,100.00
2023-01-29T20:29:28.604Z,100.00
2023-01-29T20:32:00.403Z,100.00
2023-01-29T20:34:28.663Z,100.00
2023-01-29T20:36:56.877Z,100.00
2023-01-29T20:39:26.289Z,100.00
2023-01-29T20:41:55.339Z,100.00
2023-01-29T20:44:25.609Z,100.00
2023-01-29T20:46:55.235Z,100.00
2023-01-29T20:49:23.578Z,100.00
2023-01-29T20:51:52.112Z,100.00
2023-01-29T20:54:20.444Z,100.00
2023-01-29T20:56:48.889Z,100.00
2023-01-29T20:59:17.615Z,100.00
2023-01-29T21:01:48.497Z,100.00
2023-01-29T21:04:16.804Z,100.00
2023-01-29T21:06:45.055Z,100.00
2023-01-29T21:09:13.263Z,100.00
2023-01-29T21:11:41.556Z,100.00
2023-01-29T21:14:09.887Z,100.00
2023-01-29T21:16:38.311Z,100.00
2023-01-29T21:19:17.267Z,100.00
2023-01-29T21:21:46.154Z,100.00
2023-01-29T21:24:15.396Z,100.00
2023-01-29T21:26:43.778Z,100.00
2023-01-29T21:29:12.411Z,100.00
2023-01-29T21:31:40.736Z,100.00
2023-01-29T21:34:14.165Z,100.00
2023-01-29T21:36:42.595Z,100.00
2023-01-29T21:39:17.749Z,100.00
2023-01-29T21:42:04.835Z,100.00
2023-01-29T21:44:33.741Z,100.00
2023-01-29T21:47:12.524Z,100.00
2023-01-29T21:49:43.656Z,100.00
2023-01-29T21:52:15.283Z,100.00
2023-01-29T21:54:49.195Z,100.00
2023-01-29T21:57:18.812Z,100.00
2023-01-29T21:59:52.009Z,100.00
2023-01-29T22:02:22.694Z,100.00
2023-01-29T22:05:08.683Z,100.00
2023-01-29T22:07:53.749Z,100.00
2023-01-29T22:10:22.790Z,100.00
2023-01-29T22:12:51.039Z,100.00
2023-01-29T22:15:20.721Z,100.00
2023-01-29T22:17:50.330Z,100.00
2023-01-29T22:20:22.137Z,100.00
2023-01-29T22:22:51.032Z,100.00
2023-01-29T22:25:23.133Z,100.00
2023-01-29T22:27:51.470Z,100.00
2023-01-29T22:30:23.461Z,100.00
2023-01-29T22:32:52.288Z,100.00
2023-01-29T22:35:28.280Z,100.00
2023-01-29T22:37:56.661Z,100.00
2023-01-29T22:40:24.993Z,100.00
2023-01-29T22:42:53.275Z,100.00
2023-01-29T22:45:25.234Z,100.00
2023-01-29T22:47:54.280Z,100.00
2023-01-29T22:50:24.031Z,100.00
2023-01-29T22:52:54.031Z,100.00
2023-01-29T22:55:25.609Z,100.00
2023-01-29T22:57:53.923Z,100.00
2023-01-29T23:00:22.733Z,100.00
2023-01-29T23:02:51.979Z,100.00
2023-01-29T23:05:20.289Z,100.00
2023-01-29T23:07:50.118Z,100.00
2023-01-29T23:10:18.856Z,100.00
2023-01-29T23:12:47.799Z,100.00
2023-01-29T23:15:16.554Z,100.00
2023-01-29T23:17:45.400Z,100.00
2023-01-29T23:20:14.757Z,100.00
2023-01-29T23:22:43.665Z,100.00
2023-01-29T23:25:13.968Z,100.00
2023-01-29T23:27:43.922Z,100.00
2023-01-29T23:30:13.169Z,100.00
2023-01-29T23:32:41.651Z,100.00
2023-01-29T23:35:10.799Z,100.00
2023-01-29T23:37:39.136Z,100.00
2023-01-29T23:40:08.902Z,100.00
2023-01-29T23:42:39.007Z,100.00
2023-01-29T23:45:10.078Z,100.00
2023-01-29T23:47:38.495Z,100.00
2023-01-29T23:50:07.533Z,100.00
2023-01-29T23:52:35.857Z,100.00
2023-01-29T23:55:04.559Z,100.00
2023-01-29T23:57:33.127Z,100.00
